sensor_id;sensor_type;location;lat;lon;timestamp;temperature;humidity
53268;DHT22;39156;51.176;6.738;2022-10-16T00:01:51;13.20;76.50
53268;DHT22;39156;51.176;6.738;2022-10-16T00:04:17;13.10;76.50
53268;DHT22;39156;51.176;6.738;2022-10-16T00:06:42;13.20;76.50
53268;DHT22;39156;51.176;6.738;2022-10-16T00:09:08;13.10;76.50
53268;DHT22;39156;51.176;6.738;2022-10-16T00:11:35;13.10;76.50
53268;DHT22;39156;51.176;6.738;2022-10-16T00:14:04;13.10;76.50
53268;DHT22;39156;51.176;6.738;2022-10-16T00:16:33;13.10;76.50
53268;DHT22;39156;51.176;6.738;2022-10-16T00:18:59;13.00;76.50
53268;DHT22;39156;51.176;6.738;2022-10-16T00:21:27;13.00;76.50
53268;DHT22;39156;51.176;6.738;2022-10-16T00:23:58;13.00;76.50
53268;DHT22;39156;51.176;6.738;2022-10-16T00:26:28;13.00;76.50
53268;DHT22;39156;51.176;6.738;2022-10-16T00:28:55;13.00;76.60
53268;DHT22;39156;51.176;6.738;2022-10-16T00:31:22;12.90;76.50
53268;DHT22;39156;51.176;6.738;2022-10-16T00:33:49;12.90;76.60
53268;DHT22;39156;51.176;6.738;2022-10-16T00:36:17;12.90;76.60
53268;DHT22;39156;51.176;6.738;2022-10-16T00:38:44;12.90;76.70
53268;DHT22;39156;51.176;6.738;2022-10-16T00:41:20;12.90;76.70
53268;DHT22;39156;51.176;6.738;2022-10-16T00:43:55;12.90;77.00
53268;DHT22;39156;51.176;6.738;2022-10-16T00:46:35;12.80;76.90
53268;DHT22;39156;51.176;6.738;2022-10-16T00:49:11;12.80;76.90
53268;DHT22;39156;51.176;6.738;2022-10-16T00:51:47;12.80;77.00
53268;DHT22;39156;51.176;6.738;2022-10-16T00:54:18;12.80;77.10
53268;DHT22;39156;51.176;6.738;2022-10-16T00:56:47;12.80;77.10
53268;DHT22;39156;51.176;6.738;2022-10-16T00:59:20;12.80;77.10
53268;DHT22;39156;51.176;6.738;2022-10-16T01:01:49;12.80;77.20
53268;DHT22;39156;51.176;6.738;2022-10-16T01:04:16;12.70;77.20
53268;DHT22;39156;51.176;6.738;2022-10-16T01:06:56;12.80;77.20
53268;DHT22;39156;51.176;6.738;2022-10-16T01:14:59;12.70;77.40
53268;DHT22;39156;51.176;6.738;2022-10-16T01:17:35;12.70;77.30
53268;DHT22;39156;51.176;6.738;2022-10-16T01:26:04;12.70;77.60
53268;DHT22;39156;51.176;6.738;2022-10-16T01:28:57;12.70;77.50
53268;DHT22;39156;51.176;6.738;2022-10-16T01:31:32;12.70;77.50
53268;DHT22;39156;51.176;6.738;2022-10-16T01:34:17;12.60;77.40
53268;DHT22;39156;51.176;6.738;2022-10-16T01:36:57;12.60;77.70
53268;DHT22;39156;51.176;6.738;2022-10-16T01:39:32;12.60;77.70
53268;DHT22;39156;51.176;6.738;2022-10-16T01:42:14;12.60;77.60
53268;DHT22;39156;51.176;6.738;2022-10-16T01:44:46;12.60;77.70
53268;DHT22;39156;51.176;6.738;2022-10-16T01:47:13;12.60;77.60
53268;DHT22;39156;51.176;6.738;2022-10-16T01:49:41;12.60;77.60
53268;DHT22;39156;51.176;6.738;2022-10-16T01:52:08;12.60;77.70
53268;DHT22;39156;51.176;6.738;2022-10-16T01:54:37;12.60;78.00
53268;DHT22;39156;51.176;6.738;2022-10-16T01:57:06;12.60;77.60
53268;DHT22;39156;51.176;6.738;2022-10-16T01:59:36;12.70;77.70
53268;DHT22;39156;51.176;6.738;2022-10-16T02:02:08;12.60;77.70
53268;DHT22;39156;51.176;6.738;2022-10-16T02:04:43;12.60;77.70
53268;DHT22;39156;51.176;6.738;2022-10-16T02:07:12;12.70;77.80
53268;DHT22;39156;51.176;6.738;2022-10-16T02:09:38;12.70;77.80
53268;DHT22;39156;51.176;6.738;2022-10-16T02:12:33;12.70;77.80
53268;DHT22;39156;51.176;6.738;2022-10-16T02:15:02;12.80;78.20
53268;DHT22;39156;51.176;6.738;2022-10-16T02:17:28;12.70;77.90
53268;DHT22;39156;51.176;6.738;2022-10-16T02:19:55;12.70;77.80
53268;DHT22;39156;51.176;6.738;2022-10-16T02:22:32;12.70;77.80
53268;DHT22;39156;51.176;6.738;2022-10-16T02:25:08;12.80;77.90
53268;DHT22;39156;51.176;6.738;2022-10-16T02:27:46;12.80;77.80
53268;DHT22;39156;51.176;6.738;2022-10-16T02:30:33;12.80;77.70
53268;DHT22;39156;51.176;6.738;2022-10-16T02:33:06;12.80;77.60
53268;DHT22;39156;51.176;6.738;2022-10-16T02:35:33;12.80;77.50
53268;DHT22;39156;51.176;6.738;2022-10-16T02:38:00;12.80;77.50
53268;DHT22;39156;51.176;6.738;2022-10-16T02:40:26;12.90;77.50
53268;DHT22;39156;51.176;6.738;2022-10-16T02:42:54;12.80;77.40
53268;DHT22;39156;51.176;6.738;2022-10-16T02:45:21;12.90;77.40
53268;DHT22;39156;51.176;6.738;2022-10-16T02:47:47;12.90;77.30
53268;DHT22;39156;51.176;6.738;2022-10-16T02:50:13;12.90;77.20
53268;DHT22;39156;51.176;6.738;2022-10-16T02:52:39;12.90;77.20
53268;DHT22;39156;51.176;6.738;2022-10-16T02:55:05;13.00;77.20
53268;DHT22;39156;51.176;6.738;2022-10-16T02:57:31;13.00;77.20
53268;DHT22;39156;51.176;6.738;2022-10-16T02:59:57;13.00;77.00
53268;DHT22;39156;51.176;6.738;2022-10-16T03:02:23;12.90;76.90
53268;DHT22;39156;51.176;6.738;2022-10-16T03:04:49;12.90;76.80
53268;DHT22;39156;51.176;6.738;2022-10-16T03:07:15;13.00;76.70
53268;DHT22;39156;51.176;6.738;2022-10-16T03:09:40;12.90;76.60
53268;DHT22;39156;51.176;6.738;2022-10-16T03:12:06;13.00;76.40
53268;DHT22;39156;51.176;6.738;2022-10-16T03:14:33;13.00;76.40
53268;DHT22;39156;51.176;6.738;2022-10-16T03:16:59;12.90;76.30
53268;DHT22;39156;51.176;6.738;2022-10-16T03:19:24;12.90;76.40
53268;DHT22;39156;51.176;6.738;2022-10-16T03:21:50;12.90;76.40
53268;DHT22;39156;51.176;6.738;2022-10-16T03:24:15;12.90;76.30
53268;DHT22;39156;51.176;6.738;2022-10-16T03:26:41;12.90;76.30
53268;DHT22;39156;51.176;6.738;2022-10-16T03:29:07;12.90;76.30
53268;DHT22;39156;51.176;6.738;2022-10-16T03:31:33;12.80;76.20
53268;DHT22;39156;51.176;6.738;2022-10-16T03:33:59;12.80;76.20
53268;DHT22;39156;51.176;6.738;2022-10-16T03:36:24;12.80;76.20
53268;DHT22;39156;51.176;6.738;2022-10-16T03:38:50;12.80;76.20
53268;DHT22;39156;51.176;6.738;2022-10-16T03:41:16;12.80;76.20
53268;DHT22;39156;51.176;6.738;2022-10-16T03:43:41;12.80;76.20
53268;DHT22;39156;51.176;6.738;2022-10-16T03:46:07;12.80;76.10
53268;DHT22;39156;51.176;6.738;2022-10-16T03:48:33;12.80;76.10
53268;DHT22;39156;51.176;6.738;2022-10-16T03:50:59;12.70;76.00
53268;DHT22;39156;51.176;6.738;2022-10-16T03:53:25;12.70;76.00
53268;DHT22;39156;51.176;6.738;2022-10-16T03:55:51;12.80;76.00
53268;DHT22;39156;51.176;6.738;2022-10-16T03:58:16;12.70;75.90
53268;DHT22;39156;51.176;6.738;2022-10-16T04:00:43;12.70;75.80
53268;DHT22;39156;51.176;6.738;2022-10-16T04:03:09;12.70;75.80
53268;DHT22;39156;51.176;6.738;2022-10-16T04:05:35;12.60;76.00
53268;DHT22;39156;51.176;6.738;2022-10-16T04:08:01;12.60;75.60
53268;DHT22;39156;51.176;6.738;2022-10-16T04:10:27;12.60;75.60
53268;DHT22;39156;51.176;6.738;2022-10-16T04:12:53;12.60;75.70
53268;DHT22;39156;51.176;6.738;2022-10-16T04:15:24;12.60;75.70
53268;DHT22;39156;51.176;6.738;2022-10-16T04:17:50;12.60;75.70
53268;DHT22;39156;51.176;6.738;2022-10-16T04:20:17;12.50;75.70
53268;DHT22;39156;51.176;6.738;2022-10-16T04:22:43;12.50;75.70
53268;DHT22;39156;51.176;6.738;2022-10-16T04:25:09;12.50;75.80
53268;DHT22;39156;51.176;6.738;2022-10-16T04:27:36;12.50;75.80
53268;DHT22;39156;51.176;6.738;2022-10-16T04:30:03;12.50;75.90
53268;DHT22;39156;51.176;6.738;2022-10-16T04:32:29;12.50;76.00
53268;DHT22;39156;51.176;6.738;2022-10-16T04:34:55;12.50;76.00
53268;DHT22;39156;51.176;6.738;2022-10-16T04:37:26;12.40;76.00
53268;DHT22;39156;51.176;6.738;2022-10-16T04:39:55;12.40;76.00
53268;DHT22;39156;51.176;6.738;2022-10-16T04:42:21;12.40;76.10
53268;DHT22;39156;51.176;6.738;2022-10-16T04:44:47;12.40;76.10
53268;DHT22;39156;51.176;6.738;2022-10-16T04:47:13;12.40;76.10
53268;DHT22;39156;51.176;6.738;2022-10-16T04:49:39;12.40;76.10
53268;DHT22;39156;51.176;6.738;2022-10-16T04:52:05;12.30;76.10
53268;DHT22;39156;51.176;6.738;2022-10-16T04:54:31;12.40;76.20
53268;DHT22;39156;51.176;6.738;2022-10-16T04:56:56;12.40;76.20
53268;DHT22;39156;51.176;6.738;2022-10-16T04:59:23;12.40;76.20
53268;DHT22;39156;51.176;6.738;2022-10-16T05:01:49;12.40;76.30
53268;DHT22;39156;51.176;6.738;2022-10-16T05:04:15;12.30;76.20
53268;DHT22;39156;51.176;6.738;2022-10-16T05:06:41;12.30;76.20
53268;DHT22;39156;51.176;6.738;2022-10-16T05:09:08;12.40;76.30
53268;DHT22;39156;51.176;6.738;2022-10-16T05:11:34;12.30;76.30
53268;DHT22;39156;51.176;6.738;2022-10-16T05:14:00;12.30;76.30
53268;DHT22;39156;51.176;6.738;2022-10-16T05:16:26;12.30;76.30
53268;DHT22;39156;51.176;6.738;2022-10-16T05:18:52;12.30;76.20
53268;DHT22;39156;51.176;6.738;2022-10-16T05:21:18;12.30;76.30
53268;DHT22;39156;51.176;6.738;2022-10-16T05:23:44;12.30;76.30
53268;DHT22;39156;51.176;6.738;2022-10-16T05:26:10;12.30;76.40
53268;DHT22;39156;51.176;6.738;2022-10-16T05:28:36;12.30;76.40
53268;DHT22;39156;51.176;6.738;2022-10-16T05:31:09;12.30;76.40
53268;DHT22;39156;51.176;6.738;2022-10-16T05:33:35;12.30;76.50
53268;DHT22;39156;51.176;6.738;2022-10-16T05:36:06;12.30;76.50
53268;DHT22;39156;51.176;6.738;2022-10-16T05:38:37;12.30;76.50
53268;DHT22;39156;51.176;6.738;2022-10-16T05:41:03;12.30;76.50
53268;DHT22;39156;51.176;6.738;2022-10-16T05:43:30;12.30;76.60
53268;DHT22;39156;51.176;6.738;2022-10-16T05:45:58;12.20;76.60
53268;DHT22;39156;51.176;6.738;2022-10-16T05:48:29;12.20;76.60
53268;DHT22;39156;51.176;6.738;2022-10-16T05:51:03;12.20;76.60
53268;DHT22;39156;51.176;6.738;2022-10-16T05:53:34;12.30;76.80
53268;DHT22;39156;51.176;6.738;2022-10-16T05:56:01;12.30;76.70
53268;DHT22;39156;51.176;6.738;2022-10-16T05:58:35;12.20;76.70
53268;DHT22;39156;51.176;6.738;2022-10-16T06:01:05;12.20;76.80
53268;DHT22;39156;51.176;6.738;2022-10-16T06:03:38;12.30;76.80
53268;DHT22;39156;51.176;6.738;2022-10-16T06:06:12;12.30;76.90
53268;DHT22;39156;51.176;6.738;2022-10-16T06:08:41;12.20;76.90
53268;DHT22;39156;51.176;6.738;2022-10-16T06:11:09;12.20;76.90
53268;DHT22;39156;51.176;6.738;2022-10-16T06:13:37;12.30;77.00
53268;DHT22;39156;51.176;6.738;2022-10-16T06:16:04;12.30;77.00
53268;DHT22;39156;51.176;6.738;2022-10-16T06:18:30;12.30;77.20
53268;DHT22;39156;51.176;6.738;2022-10-16T06:20:56;12.30;77.50
53268;DHT22;39156;51.176;6.738;2022-10-16T06:23:23;12.30;77.00
53268;DHT22;39156;51.176;6.738;2022-10-16T06:25:49;12.30;77.00
53268;DHT22;39156;51.176;6.738;2022-10-16T06:28:17;12.30;77.10
53268;DHT22;39156;51.176;6.738;2022-10-16T06:30:43;12.30;77.10
53268;DHT22;39156;51.176;6.738;2022-10-16T06:33:10;12.30;77.20
53268;DHT22;39156;51.176;6.738;2022-10-16T06:35:36;12.40;77.30
53268;DHT22;39156;51.176;6.738;2022-10-16T06:38:01;12.40;77.20
53268;DHT22;39156;51.176;6.738;2022-10-16T06:40:27;12.40;77.20
53268;DHT22;39156;51.176;6.738;2022-10-16T06:42:55;12.40;77.30
53268;DHT22;39156;51.176;6.738;2022-10-16T06:45:20;12.50;77.30
53268;DHT22;39156;51.176;6.738;2022-10-16T06:47:46;12.40;77.30
53268;DHT22;39156;51.176;6.738;2022-10-16T06:50:12;12.50;77.30
53268;DHT22;39156;51.176;6.738;2022-10-16T06:52:37;12.60;77.40
53268;DHT22;39156;51.176;6.738;2022-10-16T06:55:03;12.60;77.50
53268;DHT22;39156;51.176;6.738;2022-10-16T06:57:29;12.60;77.60
53268;DHT22;39156;51.176;6.738;2022-10-16T06:59:55;12.70;77.70
53268;DHT22;39156;51.176;6.738;2022-10-16T07:02:21;12.80;77.70
53268;DHT22;39156;51.176;6.738;2022-10-16T07:04:47;12.80;77.60
53268;DHT22;39156;51.176;6.738;2022-10-16T07:07:12;12.90;77.50
53268;DHT22;39156;51.176;6.738;2022-10-16T07:09:38;13.00;77.30
53268;DHT22;39156;51.176;6.738;2022-10-16T07:12:05;13.10;77.10
53268;DHT22;39156;51.176;6.738;2022-10-16T07:14:31;13.10;76.80
53268;DHT22;39156;51.176;6.738;2022-10-16T07:16:57;13.20;76.80
53268;DHT22;39156;51.176;6.738;2022-10-16T07:19:22;13.20;77.20
53268;DHT22;39156;51.176;6.738;2022-10-16T07:21:48;13.20;76.50
53268;DHT22;39156;51.176;6.738;2022-10-16T07:24:15;13.20;76.50
53268;DHT22;39156;51.176;6.738;2022-10-16T07:26:43;13.20;76.40
53268;DHT22;39156;51.176;6.738;2022-10-16T07:29:19;13.30;76.50
53268;DHT22;39156;51.176;6.738;2022-10-16T07:31:46;13.40;76.50
53268;DHT22;39156;51.176;6.738;2022-10-16T07:34:14;13.40;76.50
53268;DHT22;39156;51.176;6.738;2022-10-16T07:36:40;13.40;76.40
53268;DHT22;39156;51.176;6.738;2022-10-16T07:39:06;13.40;76.30
53268;DHT22;39156;51.176;6.738;2022-10-16T07:41:32;13.40;76.20
53268;DHT22;39156;51.176;6.738;2022-10-16T07:43:58;13.50;76.50
53268;DHT22;39156;51.176;6.738;2022-10-16T07:46:26;13.60;77.00
53268;DHT22;39156;51.176;6.738;2022-10-16T07:48:52;13.80;78.10
53268;DHT22;39156;51.176;6.738;2022-10-16T07:51:20;14.10;79.30
53268;DHT22;39156;51.176;6.738;2022-10-16T07:53:48;14.50;79.70
53268;DHT22;39156;51.176;6.738;2022-10-16T07:56:15;15.00;79.70
53268;DHT22;39156;51.176;6.738;2022-10-16T07:58:49;15.50;79.70
53268;DHT22;39156;51.176;6.738;2022-10-16T08:01:16;16.20;78.80
53268;DHT22;39156;51.176;6.738;2022-10-16T08:03:44;16.90;77.90
53268;DHT22;39156;51.176;6.738;2022-10-16T08:06:11;17.40;76.00
53268;DHT22;39156;51.176;6.738;2022-10-16T08:08:41;18.00;74.80
53268;DHT22;39156;51.176;6.738;2022-10-16T08:11:06;18.60;73.60
53268;DHT22;39156;51.176;6.738;2022-10-16T08:13:32;19.20;72.30
53268;DHT22;39156;51.176;6.738;2022-10-16T08:15:58;19.70;70.90
53268;DHT22;39156;51.176;6.738;2022-10-16T08:18:24;20.20;69.40
53268;DHT22;39156;51.176;6.738;2022-10-16T08:20:58;20.70;68.20
53268;DHT22;39156;51.176;6.738;2022-10-16T08:23:26;21.10;64.80
53268;DHT22;39156;51.176;6.738;2022-10-16T08:26:00;21.50;65.00
53268;DHT22;39156;51.176;6.738;2022-10-16T08:28:28;22.00;63.70
53268;DHT22;39156;51.176;6.738;2022-10-16T08:30:54;22.30;63.10
53268;DHT22;39156;51.176;6.738;2022-10-16T08:33:21;22.60;62.50
53268;DHT22;39156;51.176;6.738;2022-10-16T08:35:51;22.90;61.20
53268;DHT22;39156;51.176;6.738;2022-10-16T08:38:18;23.20;59.40
53268;DHT22;39156;51.176;6.738;2022-10-16T08:40:44;23.50;60.30
53268;DHT22;39156;51.176;6.738;2022-10-16T08:46:19;24.00;56.50
53268;DHT22;39156;51.176;6.738;2022-10-16T08:48:51;24.20;56.10
53268;DHT22;39156;51.176;6.738;2022-10-16T08:51:23;24.40;55.30
53268;DHT22;39156;51.176;6.738;2022-10-16T08:54:04;24.60;56.00
53268;DHT22;39156;51.176;6.738;2022-10-16T08:56:40;24.80;53.40
53268;DHT22;39156;51.176;6.738;2022-10-16T08:59:06;24.90;54.60
53268;DHT22;39156;51.176;6.738;2022-10-16T09:01:44;25.10;56.90
53268;DHT22;39156;51.176;6.738;2022-10-16T09:04:22;25.30;52.10
53268;DHT22;39156;51.176;6.738;2022-10-16T09:18:06;25.80;51.70
53268;DHT22;39156;51.176;6.738;2022-10-16T09:23:19;26.00;49.90
53268;DHT22;39156;51.176;6.738;2022-10-16T09:25:50;26.10;49.30
53268;DHT22;39156;51.176;6.738;2022-10-16T09:28:17;26.20;49.70
53268;DHT22;39156;51.176;6.738;2022-10-16T09:30:44;26.30;48.60
53268;DHT22;39156;51.176;6.738;2022-10-16T09:33:12;26.30;48.50
53268;DHT22;39156;51.176;6.738;2022-10-16T09:35:44;26.40;48.30
53268;DHT22;39156;51.176;6.738;2022-10-16T09:38:30;26.40;47.60
53268;DHT22;39156;51.176;6.738;2022-10-16T09:41:15;26.50;46.80
53268;DHT22;39156;51.176;6.738;2022-10-16T09:43:53;26.60;47.00
53268;DHT22;39156;51.176;6.738;2022-10-16T09:46:35;26.70;47.00
53268;DHT22;39156;51.176;6.738;2022-10-16T09:49:05;26.70;45.60
53268;DHT22;39156;51.176;6.738;2022-10-16T09:51:46;26.70;46.00
53268;DHT22;39156;51.176;6.738;2022-10-16T09:57:13;26.70;49.40
53268;DHT22;39156;51.176;6.738;2022-10-16T09:59:58;26.50;46.00
53268;DHT22;39156;51.176;6.738;2022-10-16T10:02:34;26.30;44.50
53268;DHT22;39156;51.176;6.738;2022-10-16T10:05:01;26.10;44.00
53268;DHT22;39156;51.176;6.738;2022-10-16T10:07:39;25.80;45.30
53268;DHT22;39156;51.176;6.738;2022-10-16T10:10:26;25.70;45.10
53268;DHT22;39156;51.176;6.738;2022-10-16T10:16:03;25.50;45.60
53268;DHT22;39156;51.176;6.738;2022-10-16T10:18:32;25.40;45.70
53268;DHT22;39156;51.176;6.738;2022-10-16T10:21:12;25.30;45.90
53268;DHT22;39156;51.176;6.738;2022-10-16T10:23:40;25.20;44.90
53268;DHT22;39156;51.176;6.738;2022-10-16T10:26:18;25.00;45.70
53268;DHT22;39156;51.176;6.738;2022-10-16T10:31:47;24.60;45.00
53268;DHT22;39156;51.176;6.738;2022-10-16T10:34:26;24.20;44.90
53268;DHT22;39156;51.176;6.738;2022-10-16T10:38:04;23.90;45.20
53268;DHT22;39156;51.176;6.738;2022-10-16T10:40:49;23.60;45.60
53268;DHT22;39156;51.176;6.738;2022-10-16T10:43:43;23.30;46.50
53268;DHT22;39156;51.176;6.738;2022-10-16T10:46:41;23.00;46.50
53268;DHT22;39156;51.176;6.738;2022-10-16T10:52:31;22.60;47.30
53268;DHT22;39156;51.176;6.738;2022-10-16T10:55:16;22.40;47.40
53268;DHT22;39156;51.176;6.738;2022-10-16T10:58:01;22.30;47.90
53268;DHT22;39156;51.176;6.738;2022-10-16T11:00:57;22.10;48.20
53268;DHT22;39156;51.176;6.738;2022-10-16T11:06:39;22.00;48.70
53268;DHT22;39156;51.176;6.738;2022-10-16T11:09:17;21.90;48.70
53268;DHT22;39156;51.176;6.738;2022-10-16T11:11:48;21.80;49.10
53268;DHT22;39156;51.176;6.738;2022-10-16T11:14:34;21.80;48.80
53268;DHT22;39156;51.176;6.738;2022-10-16T11:17:27;21.70;48.90
53268;DHT22;39156;51.176;6.738;2022-10-16T11:20:05;21.70;48.70
53268;DHT22;39156;51.176;6.738;2022-10-16T11:22:39;21.60;48.30
53268;DHT22;39156;51.176;6.738;2022-10-16T11:25:27;21.60;48.60
53268;DHT22;39156;51.176;6.738;2022-10-16T11:27:56;21.60;48.80
53268;DHT22;39156;51.176;6.738;2022-10-16T11:30:30;21.50;48.70
53268;DHT22;39156;51.176;6.738;2022-10-16T11:35:49;21.50;48.30
53268;DHT22;39156;51.176;6.738;2022-10-16T11:38:34;21.40;48.90
53268;DHT22;39156;51.176;6.738;2022-10-16T11:47:19;21.20;49.00
53268;DHT22;39156;51.176;6.738;2022-10-16T11:49:51;21.10;49.50
53268;DHT22;39156;51.176;6.738;2022-10-16T11:52:48;21.00;49.40
53268;DHT22;39156;51.176;6.738;2022-10-16T11:55:33;21.00;50.30
53268;DHT22;39156;51.176;6.738;2022-10-16T11:58:27;21.00;49.50
53268;DHT22;39156;51.176;6.738;2022-10-16T12:09:25;21.00;50.10
53268;DHT22;39156;51.176;6.738;2022-10-16T12:11:53;21.00;49.80
53268;DHT22;39156;51.176;6.738;2022-10-16T12:17:04;21.00;50.00
53268;DHT22;39156;51.176;6.738;2022-10-16T12:20:20;21.00;50.00
53268;DHT22;39156;51.176;6.738;2022-10-16T12:22:52;21.10;50.00
53268;DHT22;39156;51.176;6.738;2022-10-16T12:28:01;21.10;50.00
53268;DHT22;39156;51.176;6.738;2022-10-16T12:30:35;21.20;49.80
53268;DHT22;39156;51.176;6.738;2022-10-16T12:33:06;21.20;49.70
53268;DHT22;39156;51.176;6.738;2022-10-16T12:35:46;21.20;49.70
53268;DHT22;39156;51.176;6.738;2022-10-16T12:38:26;21.30;49.80
53268;DHT22;39156;51.176;6.738;2022-10-16T12:41:02;21.30;50.30
53268;DHT22;39156;51.176;6.738;2022-10-16T12:43:39;21.30;49.90
53268;DHT22;39156;51.176;6.738;2022-10-16T12:48:36;21.40;49.40
53268;DHT22;39156;51.176;6.738;2022-10-16T12:51:23;21.40;49.70
53268;DHT22;39156;51.176;6.738;2022-10-16T12:54:40;21.50;50.00
53268;DHT22;39156;51.176;6.738;2022-10-16T13:06:20;21.50;48.60
53268;DHT22;39156;51.176;6.738;2022-10-16T13:09:19;21.50;49.10
53268;DHT22;39156;51.176;6.738;2022-10-16T13:12:15;21.40;48.90
53268;DHT22;39156;51.176;6.738;2022-10-16T13:14:57;21.40;49.10
53268;DHT22;39156;51.176;6.738;2022-10-16T13:17:53;21.40;48.90
53268;DHT22;39156;51.176;6.738;2022-10-16T13:20:28;21.50;48.90
53268;DHT22;39156;51.176;6.738;2022-10-16T13:23:23;21.50;49.20
53268;DHT22;39156;51.176;6.738;2022-10-16T13:26:09;21.50;48.80
53268;DHT22;39156;51.176;6.738;2022-10-16T13:28:59;21.50;48.70
53268;DHT22;39156;51.176;6.738;2022-10-16T13:31:26;21.50;48.30
53268;DHT22;39156;51.176;6.738;2022-10-16T13:33:55;21.40;48.20
53268;DHT22;39156;51.176;6.738;2022-10-16T13:36:27;21.40;48.00
53268;DHT22;39156;51.176;6.738;2022-10-16T13:39:10;21.30;48.20
53268;DHT22;39156;51.176;6.738;2022-10-16T13:41:42;21.30;48.30
53268;DHT22;39156;51.176;6.738;2022-10-16T13:44:15;21.20;48.80
53268;DHT22;39156;51.176;6.738;2022-10-16T13:46:44;21.20;48.40
53268;DHT22;39156;51.176;6.738;2022-10-16T13:49:17;21.20;48.40
53268;DHT22;39156;51.176;6.738;2022-10-16T13:51:56;21.20;48.10
53268;DHT22;39156;51.176;6.738;2022-10-16T13:54:24;21.10;48.90
53268;DHT22;39156;51.176;6.738;2022-10-16T13:56:52;21.10;48.40
53268;DHT22;39156;51.176;6.738;2022-10-16T13:59:41;21.10;48.60
53268;DHT22;39156;51.176;6.738;2022-10-16T14:02:34;21.10;48.80
53268;DHT22;39156;51.176;6.738;2022-10-16T14:05:02;21.10;49.00
53268;DHT22;39156;51.176;6.738;2022-10-16T14:07:31;21.10;49.10
53268;DHT22;39156;51.176;6.738;2022-10-16T14:10:07;21.00;48.80
53268;DHT22;39156;51.176;6.738;2022-10-16T14:12:54;21.00;49.10
53268;DHT22;39156;51.176;6.738;2022-10-16T14:15:29;21.00;49.50
53268;DHT22;39156;51.176;6.738;2022-10-16T14:17:56;21.00;49.40
53268;DHT22;39156;51.176;6.738;2022-10-16T14:20:29;20.90;49.40
53268;DHT22;39156;51.176;6.738;2022-10-16T14:23:03;20.90;49.10
53268;DHT22;39156;51.176;6.738;2022-10-16T14:25:31;20.90;49.50
53268;DHT22;39156;51.176;6.738;2022-10-16T14:28:04;20.90;49.70
53268;DHT22;39156;51.176;6.738;2022-10-16T14:30:34;20.90;50.20
53268;DHT22;39156;51.176;6.738;2022-10-16T14:33:06;21.00;50.40
53268;DHT22;39156;51.176;6.738;2022-10-16T14:35:44;21.00;50.20
53268;DHT22;39156;51.176;6.738;2022-10-16T14:38:19;21.00;49.70
53268;DHT22;39156;51.176;6.738;2022-10-16T14:40:49;21.00;49.10
53268;DHT22;39156;51.176;6.738;2022-10-16T14:43:21;21.00;49.70
53268;DHT22;39156;51.176;6.738;2022-10-16T14:45:55;20.90;50.20
53268;DHT22;39156;51.176;6.738;2022-10-16T14:48:22;20.90;50.10
53268;DHT22;39156;51.176;6.738;2022-10-16T14:50:49;20.90;50.30
53268;DHT22;39156;51.176;6.738;2022-10-16T14:53:15;20.80;50.50
53268;DHT22;39156;51.176;6.738;2022-10-16T14:55:41;20.80;50.70
53268;DHT22;39156;51.176;6.738;2022-10-16T14:58:22;20.80;50.80
53268;DHT22;39156;51.176;6.738;2022-10-16T15:00:49;20.70;50.80
53268;DHT22;39156;51.176;6.738;2022-10-16T15:03:18;20.70;51.00
53268;DHT22;39156;51.176;6.738;2022-10-16T15:05:43;20.70;51.20
53268;DHT22;39156;51.176;6.738;2022-10-16T15:08:09;20.60;51.50
53268;DHT22;39156;51.176;6.738;2022-10-16T15:10:39;20.60;51.80
53268;DHT22;39156;51.176;6.738;2022-10-16T15:13:08;20.50;51.60
53268;DHT22;39156;51.176;6.738;2022-10-16T15:15:44;20.50;51.50
53268;DHT22;39156;51.176;6.738;2022-10-16T15:18:11;20.50;51.50
53268;DHT22;39156;51.176;6.738;2022-10-16T15:20:38;20.30;51.40
53268;DHT22;39156;51.176;6.738;2022-10-16T15:23:16;20.30;51.50
53268;DHT22;39156;51.176;6.738;2022-10-16T15:25:54;20.30;52.00
53268;DHT22;39156;51.176;6.738;2022-10-16T15:28:22;20.20;51.30
53268;DHT22;39156;51.176;6.738;2022-10-16T15:30:50;20.20;51.50
53268;DHT22;39156;51.176;6.738;2022-10-16T15:33:26;20.10;51.60
53268;DHT22;39156;51.176;6.738;2022-10-16T15:35:54;20.10;51.50
53268;DHT22;39156;51.176;6.738;2022-10-16T15:38:21;20.00;51.70
53268;DHT22;39156;51.176;6.738;2022-10-16T15:40:48;20.00;51.80
53268;DHT22;39156;51.176;6.738;2022-10-16T15:43:15;19.90;51.90
53268;DHT22;39156;51.176;6.738;2022-10-16T15:45:41;19.90;52.20
53268;DHT22;39156;51.176;6.738;2022-10-16T15:48:09;19.80;52.20
53268;DHT22;39156;51.176;6.738;2022-10-16T15:50:37;19.70;52.30
53268;DHT22;39156;51.176;6.738;2022-10-16T15:53:03;19.70;52.40
53268;DHT22;39156;51.176;6.738;2022-10-16T15:55:29;19.70;52.50
53268;DHT22;39156;51.176;6.738;2022-10-16T15:57:55;19.60;52.70
53268;DHT22;39156;51.176;6.738;2022-10-16T16:00:22;19.50;52.80
53268;DHT22;39156;51.176;6.738;2022-10-16T16:02:53;19.50;53.00
53268;DHT22;39156;51.176;6.738;2022-10-16T16:05:20;19.50;53.00
53268;DHT22;39156;51.176;6.738;2022-10-16T16:07:47;19.40;53.00
53268;DHT22;39156;51.176;6.738;2022-10-16T16:10:13;19.40;53.20
53268;DHT22;39156;51.176;6.738;2022-10-16T16:12:39;19.40;53.20
53268;DHT22;39156;51.176;6.738;2022-10-16T16:15:06;19.30;53.30
53268;DHT22;39156;51.176;6.738;2022-10-16T16:17:33;19.20;53.30
53268;DHT22;39156;51.176;6.738;2022-10-16T16:19:59;19.20;53.40
53268;DHT22;39156;51.176;6.738;2022-10-16T16:22:26;19.10;53.40
53268;DHT22;39156;51.176;6.738;2022-10-16T16:24:52;19.10;53.60
53268;DHT22;39156;51.176;6.738;2022-10-16T16:27:17;19.00;53.70
53268;DHT22;39156;51.176;6.738;2022-10-16T16:29:46;19.00;54.50
53268;DHT22;39156;51.176;6.738;2022-10-16T16:32:12;18.90;54.00
53268;DHT22;39156;51.176;6.738;2022-10-16T16:34:37;18.90;54.20
53268;DHT22;39156;51.176;6.738;2022-10-16T16:37:03;18.80;54.40
53268;DHT22;39156;51.176;6.738;2022-10-16T16:39:29;18.80;54.50
53268;DHT22;39156;51.176;6.738;2022-10-16T16:41:57;18.70;54.70
53268;DHT22;39156;51.176;6.738;2022-10-16T16:44:28;18.60;54.90
53268;DHT22;39156;51.176;6.738;2022-10-16T16:46:53;18.60;55.10
53268;DHT22;39156;51.176;6.738;2022-10-16T16:49:19;18.60;55.30
53268;DHT22;39156;51.176;6.738;2022-10-16T16:51:45;18.50;55.40
53268;DHT22;39156;51.176;6.738;2022-10-16T16:54:11;18.50;55.60
53268;DHT22;39156;51.176;6.738;2022-10-16T16:56:38;18.50;55.80
53268;DHT22;39156;51.176;6.738;2022-10-16T16:59:04;18.40;55.60
53268;DHT22;39156;51.176;6.738;2022-10-16T17:01:30;18.40;55.90
53268;DHT22;39156;51.176;6.738;2022-10-16T17:03:57;18.40;56.20
53268;DHT22;39156;51.176;6.738;2022-10-16T17:06:24;18.40;56.40
53268;DHT22;39156;51.176;6.738;2022-10-16T17:08:55;18.30;55.70
53268;DHT22;39156;51.176;6.738;2022-10-16T17:11:24;18.30;56.50
53268;DHT22;39156;51.176;6.738;2022-10-16T17:13:52;18.20;56.90